Huvudsida
METAR-TAF:

METAR-TAF

Flygplatser :

Örebro flygplats

Örebro, Sverige

latitud: 59-14N, longitud: 015-03E, höjd: 57 m

Aktuellt väderrapport

Denna rapport gjordes för 42 minuter sedan, klockan 19:50 UTC
Vind 8 kt från nord
Temperatur 1°C
Fuktighet 93%
Tryck 1038 hPa
Sikt 10 km eller mer
Mulet på en höjd av 2200 ft

METAR: ESOE 191950Z 35008KT 9999 OVC022 01/M00 Q1038

Tid: 21:32 (20:32 UTC)

Väderprognos

Denna rapport gjordes för 3 timmar och 2 minuter sedan, klockan 17:30 UTC
Prognos gäller från 19 kl. 18 UTC till 19 kl. 24 UTC
Vind 4 kt från nord/nordost
Sikt 10 km eller mer
Brutna moln på en höjd av 2500 ft

TAF: ESOE 191730Z 1918/1924 02004KT 9999 BKN025

Aktuella väderrapporter och prognoser från 4000 flygplatser (METAR- och TAF-rapporter).

De tillgängliga stationerna syns som gula och röda prickar på kartan.

För musen över prickarna för att se namnen på stationerna.

Klicka sedan för att få väderrapporter och prognoser.

För att ändra kartan: Klicka på de gröna knapparna med ett svart kors på för att zooma in; den gröna knappen med ett streck på för att zooma ut; eller på de gröna pilarna för angränsande kartor.


METAR-TAF: